createdAt,value
2019-05-12T00:00:24.592Z,1013.14
2019-05-12T00:01:24.567Z,1013.13
2019-05-12T00:02:24.560Z,1013.16
2019-05-12T00:03:24.556Z,1013.11
2019-05-12T00:04:24.542Z,1013.14
2019-05-12T00:05:24.527Z,1013.13
2019-05-12T00:06:24.518Z,1013.17
2019-05-12T00:07:24.505Z,1013.14
2019-05-12T00:08:24.501Z,1013.18
2019-05-12T00:09:24.480Z,1013.21
2019-05-12T00:10:24.461Z,1013.11
2019-05-12T00:11:24.463Z,1013.18
2019-05-12T00:12:24.458Z,1013.17
2019-05-12T00:13:24.435Z,1013.16
2019-05-12T00:14:24.436Z,1013.24
2019-05-12T00:15:24.415Z,1013.21
2019-05-12T00:16:24.399Z,1013.23
2019-05-12T00:17:24.412Z,1013.24
2019-05-12T00:18:24.397Z,1013.25
2019-05-12T00:19:24.385Z,1013.26
2019-05-12T00:20:24.369Z,1013.26
2019-05-12T00:21:24.338Z,1013.28
2019-05-12T00:22:24.335Z,1013.27
2019-05-12T00:23:27.976Z,1013.28
2019-05-12T00:24:25.330Z,1013.34
2019-05-12T00:25:24.306Z,1013.32
2019-05-12T00:26:24.296Z,1013.31
2019-05-12T00:27:24.278Z,1013.23
2019-05-12T00:28:24.266Z,1013.32
2019-05-12T00:29:24.282Z,1013.32
2019-05-12T00:30:24.253Z,1013.30
2019-05-12T00:31:24.250Z,1013.35
2019-05-12T00:32:24.236Z,1013.34
2019-05-12T00:33:24.212Z,1013.31
2019-05-12T00:34:24.223Z,1013.38
2019-05-12T00:35:24.197Z,1013.34
2019-05-12T00:36:24.184Z,1013.39
2019-05-12T00:37:24.178Z,1013.40
2019-05-12T00:38:24.173Z,1013.40
2019-05-12T00:39:24.165Z,1013.39
2019-05-12T00:40:24.147Z,1013.45
2019-05-12T00:41:24.136Z,1013.41
2019-05-12T00:42:24.124Z,1013.45
2019-05-12T00:43:24.116Z,1013.48
2019-05-12T00:44:24.123Z,1013.49
2019-05-12T00:45:24.082Z,1013.46
2019-05-12T00:46:24.075Z,1013.48
2019-05-12T00:47:24.075Z,1013.51
2019-05-12T00:48:24.056Z,1013.49
2019-05-12T00:49:24.071Z,1013.52
2019-05-12T00:50:24.047Z,1013.48
2019-05-12T00:51:24.024Z,1013.48
2019-05-12T00:52:24.018Z,1013.50
2019-05-12T00:53:36.178Z,1013.50
2019-05-12T00:54:25.007Z,1013.54
2019-05-12T00:55:23.982Z,1013.57
2019-05-12T00:56:23.970Z,1013.54
2019-05-12T00:57:23.955Z,1013.58
2019-05-12T00:58:23.951Z,1013.65
2019-05-12T00:59:23.933Z,1013.60
2019-05-12T01:00:23.938Z,1013.61
2019-05-12T01:01:23.919Z,1013.61
2019-05-12T01:02:23.916Z,1013.65
2019-05-12T01:03:23.897Z,1013.67
2019-05-12T01:04:23.894Z,1013.69
2019-05-12T01:05:23.877Z,1013.76
2019-05-12T01:06:23.851Z,1013.73
2019-05-12T01:07:23.850Z,1013.78
2019-05-12T01:08:23.845Z,1013.79
2019-05-12T01:09:23.826Z,1013.74
2019-05-12T01:10:23.820Z,1013.81
2019-05-12T01:11:23.811Z,1013.81
2019-05-12T01:12:23.800Z,1013.80
2019-05-12T01:13:23.782Z,1013.82
2019-05-12T01:14:23.785Z,1013.85
2019-05-12T01:15:23.774Z,1013.87
2019-05-12T01:16:23.750Z,1013.88
2019-05-12T01:17:23.744Z,1013.90
2019-05-12T01:18:23.727Z,1013.85
2019-05-12T01:19:23.709Z,1013.88
2019-05-12T01:20:23.721Z,1013.90
2019-05-12T01:21:23.706Z,1013.91
2019-05-12T01:22:23.689Z,1013.89
2019-05-12T01:23:23.759Z,1013.93
2019-05-12T01:24:23.661Z,1013.94
2019-05-12T01:25:23.662Z,1013.96
2019-05-12T01:26:23.664Z,1014.02
2019-05-12T01:27:23.636Z,1013.97
2019-05-12T01:28:23.620Z,1014.01
2019-05-12T01:29:23.593Z,1014.02
2019-05-12T01:30:23.599Z,1014.05
2019-05-12T01:31:23.583Z,1014.07
2019-05-12T01:32:23.576Z,1014.08
2019-05-12T01:33:23.558Z,1014.14
2019-05-12T01:34:23.543Z,1014.08
2019-05-12T01:35:23.544Z,1014.10
2019-05-12T01:36:23.522Z,1014.12
2019-05-12T01:37:23.527Z,1014.17
2019-05-12T01:38:23.514Z,1014.19
2019-05-12T01:39:23.495Z,1014.22
2019-05-12T01:40:23.496Z,1014.24
2019-05-12T01:41:23.470Z,1014.19
2019-05-12T01:42:23.483Z,1014.17
2019-05-12T01:43:23.438Z,1014.22
2019-05-12T01:44:23.436Z,1014.17
2019-05-12T01:45:23.454Z,1014.21
2019-05-12T01:46:23.426Z,1014.23
2019-05-12T01:47:23.408Z,1014.26
2019-05-12T01:48:23.394Z,1014.30
2019-05-12T01:49:23.387Z,1014.27
2019-05-12T01:50:23.392Z,1014.34
2019-05-12T01:51:23.365Z,1014.33
2019-05-12T01:52:23.356Z,1014.35
2019-05-12T01:53:23.338Z,1014.39
2019-05-12T01:54:23.326Z,1014.37
2019-05-12T01:55:23.320Z,1014.42
2019-05-12T01:56:23.304Z,1014.46
2019-05-12T01:57:23.305Z,1014.46
2019-05-12T01:58:23.292Z,1014.54
2019-05-12T01:59:23.278Z,1014.52
2019-05-12T02:00:23.286Z,1014.59
2019-05-12T02:01:23.247Z,1014.60
2019-05-12T02:02:23.235Z,1014.59
2019-05-12T02:03:23.243Z,1014.56
2019-05-12T02:04:23.223Z,1014.62
2019-05-12T02:05:23.232Z,1014.58
2019-05-12T02:06:23.198Z,1014.61
2019-05-12T02:07:23.191Z,1014.66
2019-05-12T02:08:23.176Z,1014.68
2019-05-12T02:09:23.182Z,1014.68
2019-05-12T02:10:23.174Z,1014.71
2019-05-12T02:11:23.141Z,1014.75
2019-05-12T02:12:23.144Z,1014.75
2019-05-12T02:13:23.116Z,1014.76
2019-05-12T02:14:23.116Z,1014.77
2019-05-12T02:15:23.110Z,1014.78
2019-05-12T02:16:23.093Z,1014.74
2019-05-12T02:17:23.086Z,1014.76
2019-05-12T02:18:23.074Z,1014.73
2019-05-12T02:19:23.060Z,1014.79
2019-05-12T02:20:23.043Z,1014.78
2019-05-12T02:21:23.061Z,1014.77
2019-05-12T02:22:23.026Z,1014.83
2019-05-12T02:23:23.015Z,1014.83
2019-05-12T02:24:27.129Z,1014.81
2019-05-12T02:25:23.982Z,1014.85
2019-05-12T02:26:22.989Z,1014.85
2019-05-12T02:27:22.953Z,1014.86
2019-05-12T02:28:22.951Z,1014.84
2019-05-12T02:29:22.983Z,1014.84
2019-05-12T02:30:22.949Z,1014.84
2019-05-12T02:31:22.955Z,1014.89
2019-05-12T02:32:25.299Z,1014.91
2019-05-12T02:33:24.426Z,1014.85
2019-05-12T02:34:25.429Z,1014.96
2019-05-12T02:35:24.740Z,1014.89
2019-05-12T02:36:25.750Z,1014.87
2019-05-12T02:37:26.020Z,1014.90
2019-05-12T02:38:25.150Z,1014.87
2019-05-12T02:39:24.900Z,1014.90
2019-05-12T02:40:25.155Z,1014.85
2019-05-12T02:41:25.634Z,1014.89
2019-05-12T02:42:24.395Z,1014.90
2019-05-12T02:43:24.370Z,1014.89
2019-05-12T02:44:24.821Z,1014.88
2019-05-12T02:45:25.230Z,1014.95
2019-05-12T02:46:25.564Z,1014.94
2019-05-12T02:47:24.161Z,1014.95
2019-05-12T02:48:24.566Z,1014.94
2019-05-12T02:49:24.419Z,1014.93
2019-05-12T02:50:24.765Z,1014.91
2019-05-12T02:51:24.813Z,1014.98
2019-05-12T02:52:24.906Z,1014.94
2019-05-12T02:53:24.861Z,1015.01
2019-05-12T02:54:26.980Z,1014.99
2019-05-12T02:55:25.767Z,1015.01
2019-05-12T02:56:25.724Z,1015.03
2019-05-12T02:57:25.509Z,1015.00
2019-05-12T02:58:25.398Z,1015.06
2019-05-12T02:59:25.296Z,1015.03
2019-05-12T03:00:24.199Z,1015.08
2019-05-12T03:01:24.475Z,1015.04
2019-05-12T03:02:24.420Z,1015.01
2019-05-12T03:03:25.096Z,1015.03
2019-05-12T03:04:24.766Z,1015.08
2019-05-12T03:05:24.835Z,1015.05
2019-05-12T03:06:25.186Z,1015.10
2019-05-12T03:07:25.319Z,1015.12
2019-05-12T03:08:25.354Z,1015.12
2019-05-12T03:09:24.367Z,1015.14
2019-05-12T03:10:25.298Z,1015.11
2019-05-12T03:11:24.840Z,1015.19
2019-05-12T03:12:25.470Z,1015.19
2019-05-12T03:13:25.318Z,1015.16
2019-05-12T03:14:25.209Z,1015.22
2019-05-12T03:15:25.090Z,1015.21
2019-05-12T03:16:25.425Z,1015.24
2019-05-12T03:17:25.243Z,1015.25
2019-05-12T03:18:25.222Z,1015.28
2019-05-12T03:19:25.049Z,1015.28
2019-05-12T03:20:24.166Z,1015.30
2019-05-12T03:21:24.531Z,1015.37
2019-05-12T03:22:25.279Z,1015.37
2019-05-12T03:23:24.816Z,1015.32
2019-05-12T03:24:25.013Z,1015.37
2019-05-12T03:25:29.045Z,1015.37
2019-05-12T03:26:24.615Z,1015.45
2019-05-12T03:27:25.510Z,1015.40
2019-05-12T03:28:25.470Z,1015.44
2019-05-12T03:29:24.849Z,1015.45
2019-05-12T03:30:28.414Z,1015.46
2019-05-12T03:31:30.556Z,1015.44
2019-05-12T03:32:27.774Z,1015.43
2019-05-12T03:33:33.602Z,1015.48
2019-05-12T03:34:28.747Z,1015.45
2019-05-12T03:35:32.185Z,1015.45
2019-05-12T03:36:31.954Z,1015.47
2019-05-12T03:37:30.876Z,1015.48
2019-05-12T03:38:24.857Z,1015.45
2019-05-12T03:39:24.822Z,1015.55
2019-05-12T03:40:24.948Z,1015.51
2019-05-12T03:41:24.897Z,1015.49
2019-05-12T03:42:25.091Z,1015.55
2019-05-12T03:43:24.349Z,1015.51
2019-05-12T03:44:25.007Z,1015.53
2019-05-12T03:45:24.893Z,1015.58
2019-05-12T03:46:24.827Z,1015.55
2019-05-12T03:47:25.138Z,1015.51
2019-05-12T03:48:25.081Z,1015.62
2019-05-12T03:49:24.449Z,1015.62
2019-05-12T03:50:24.376Z,1015.71
2019-05-12T03:51:25.081Z,1015.73
2019-05-12T03:52:24.336Z,1015.72
2019-05-12T03:53:24.782Z,1015.76
2019-05-12T03:54:24.403Z,1015.73
2019-05-12T03:55:34.328Z,1015.73
2019-05-12T03:56:26.009Z,1015.75
2019-05-12T03:57:25.086Z,1015.78
2019-05-12T03:58:25.323Z,1015.75
2019-05-12T03:59:21.959Z,1015.78
2019-05-12T04:00:24.729Z,1015.86
2019-05-12T04:01:25.183Z,1015.83
2019-05-12T04:02:24.917Z,1015.91
2019-05-12T04:03:24.737Z,1015.84
2019-05-12T04:04:24.420Z,1015.83
2019-05-12T04:05:24.364Z,1015.84
2019-05-12T04:06:24.487Z,1015.83
2019-05-12T04:07:24.375Z,1015.91
2019-05-12T04:08:24.641Z,1015.85
2019-05-12T04:09:24.381Z,1015.91
2019-05-12T04:10:24.511Z,1015.89
2019-05-12T04:11:24.719Z,1015.94
2019-05-12T04:12:25.168Z,1015.98
2019-05-12T04:13:21.850Z,1016.01
2019-05-12T04:14:24.843Z,1016.03
2019-05-12T04:15:21.781Z,1015.99
2019-05-12T04:16:24.685Z,1016.07
2019-05-12T04:17:24.366Z,1016.12
2019-05-12T04:18:24.550Z,1016.09
2019-05-12T04:19:24.714Z,1016.12
2019-05-12T04:20:21.734Z,1016.13
2019-05-12T04:21:24.264Z,1016.19
2019-05-12T04:22:24.738Z,1016.24
2019-05-12T04:23:24.549Z,1016.27
2019-05-12T04:24:24.756Z,1016.34
2019-05-12T04:25:24.775Z,1016.32
2019-05-12T04:26:25.066Z,1016.38
2019-05-12T04:27:24.855Z,1016.33
2019-05-12T04:28:24.347Z,1016.38
2019-05-12T04:29:24.844Z,1016.41
2019-05-12T04:30:24.765Z,1016.41
2019-05-12T04:31:24.470Z,1016.39
2019-05-12T04:32:24.662Z,1016.38
2019-05-12T04:33:21.582Z,1016.36
2019-05-12T04:34:24.870Z,1016.38
2019-05-12T04:35:24.863Z,1016.42
2019-05-12T04:36:24.585Z,1016.43
2019-05-12T04:37:24.779Z,1016.43
2019-05-12T04:38:24.679Z,1016.42
2019-05-12T04:39:21.521Z,1016.47
2019-05-12T04:40:24.618Z,1016.48
2019-05-12T04:41:21.488Z,1016.53
2019-05-12T04:42:24.853Z,1016.59
2019-05-12T04:43:25.050Z,1016.55
2019-05-12T04:44:24.873Z,1016.60
2019-05-12T04:45:21.439Z,1016.66
2019-05-12T04:46:21.433Z,1016.67
2019-05-12T04:47:21.437Z,1016.67
2019-05-12T04:48:21.697Z,1016.65
2019-05-12T04:49:24.707Z,1016.75
2019-05-12T04:50:24.272Z,1016.73
2019-05-12T04:51:21.389Z,1016.72
2019-05-12T04:52:24.637Z,1016.76
2019-05-12T04:53:24.875Z,1016.79
2019-05-12T04:54:24.360Z,1016.79
2019-05-12T04:55:21.336Z,1016.78
2019-05-12T04:56:24.739Z,1016.83
2019-05-12T04:57:21.569Z,1016.83
2019-05-12T04:58:21.322Z,1016.84
2019-05-12T04:59:21.295Z,1016.91
2019-05-12T05:00:21.282Z,1016.93
2019-05-12T05:01:21.286Z,1016.94
2019-05-12T05:02:24.573Z,1017.00
2019-05-12T05:03:21.260Z,1016.97
2019-05-12T05:04:24.102Z,1017.03
2019-05-12T05:05:21.222Z,1016.97
2019-05-12T05:06:21.209Z,1017.02
2019-05-12T05:07:24.183Z,1017.03
2019-05-12T05:08:24.114Z,1017.06
2019-05-12T05:09:24.386Z,1017.07
2019-05-12T05:10:21.177Z,1017.06
2019-05-12T05:11:21.169Z,1017.12
2019-05-12T05:12:23.744Z,1017.14
2019-05-12T05:13:21.133Z,1017.13
2019-05-12T05:14:21.126Z,1017.12
2019-05-12T05:15:21.119Z,1017.21
2019-05-12T05:16:21.112Z,1017.25
2019-05-12T05:17:24.185Z,1017.27
2019-05-12T05:18:21.076Z,1017.29
2019-05-12T05:19:21.064Z,1017.33
2019-05-12T05:20:21.060Z,1017.29
2019-05-12T05:21:21.059Z,1017.36
2019-05-12T05:22:21.036Z,1017.34
2019-05-12T05:23:21.042Z,1017.44
2019-05-12T05:24:23.417Z,1017.42
2019-05-12T05:25:21.007Z,1017.43
2019-05-12T05:26:27.350Z,1017.49
2019-05-12T05:27:21.976Z,1017.45
2019-05-12T05:28:20.980Z,1017.48
2019-05-12T05:29:20.970Z,1017.49
2019-05-12T05:30:20.953Z,1017.51
2019-05-12T05:31:20.943Z,1017.57
2019-05-12T05:32:23.173Z,1017.62
2019-05-12T05:33:20.938Z,1017.67
2019-05-12T05:34:20.910Z,1017.69
2019-05-12T05:35:20.892Z,1017.67
2019-05-12T05:36:20.883Z,1017.65
2019-05-12T05:37:20.863Z,1017.76
2019-05-12T05:38:21.014Z,1017.72
2019-05-12T05:39:20.842Z,1017.72
2019-05-12T05:40:28.461Z,1017.71
2019-05-12T05:41:23.930Z,1017.74
2019-05-12T05:42:22.044Z,1017.75
2019-05-12T05:43:24.049Z,1017.78
2019-05-12T05:44:20.806Z,1017.87
2019-05-12T05:45:24.183Z,1017.85
2019-05-12T05:46:23.939Z,1017.85
2019-05-12T05:47:25.662Z,1017.89
2019-05-12T05:48:24.012Z,1017.94
2019-05-12T05:49:20.738Z,1017.94
2019-05-12T05:50:24.810Z,1017.95
2019-05-12T05:51:23.735Z,1017.95
2019-05-12T05:52:24.608Z,1017.91
2019-05-12T05:53:21.708Z,1017.97
2019-05-12T05:54:24.736Z,1017.93
2019-05-12T05:55:23.334Z,1018.00
2019-05-12T05:56:20.673Z,1017.98
2019-05-12T05:57:25.696Z,1018.00
2019-05-12T05:58:21.684Z,1018.06
2019-05-12T05:59:21.899Z,1018.04
2019-05-12T06:00:26.029Z,1018.15
2019-05-12T06:01:20.614Z,1018.10
2019-05-12T06:02:25.504Z,1018.13
2019-05-12T06:03:27.205Z,1018.16
2019-05-12T06:04:23.666Z,1018.12
2019-05-12T06:05:26.319Z,1018.13
2019-05-12T06:06:23.666Z,1018.20
2019-05-12T06:07:23.941Z,1018.17
2019-05-12T06:08:23.696Z,1018.19
2019-05-12T06:09:20.518Z,1018.28
2019-05-12T06:10:20.500Z,1018.26
2019-05-12T06:11:26.513Z,1018.27
2019-05-12T06:12:23.546Z,1018.30
2019-05-12T06:13:21.234Z,1018.29
2019-05-12T06:14:23.572Z,1018.27
2019-05-12T06:15:20.458Z,1018.31
2019-05-12T06:16:22.829Z,1018.35
2019-05-12T06:17:20.429Z,1018.33
2019-05-12T06:18:20.429Z,1018.28
2019-05-12T06:19:23.481Z,1018.37
2019-05-12T06:20:23.683Z,1018.31
2019-05-12T06:21:20.378Z,1018.36
2019-05-12T06:22:20.369Z,1018.38
2019-05-12T06:23:20.371Z,1018.32
2019-05-12T06:24:20.370Z,1018.39
2019-05-12T06:25:20.361Z,1018.40
2019-05-12T06:26:20.948Z,1018.45
2019-05-12T06:27:21.345Z,1018.44
2019-05-12T06:28:20.310Z,1018.47
2019-05-12T06:29:21.999Z,1018.53
2019-05-12T06:30:20.279Z,1018.51
2019-05-12T06:31:25.234Z,1018.51
2019-05-12T06:32:21.251Z,1018.50
2019-05-12T06:33:22.820Z,1018.56
2019-05-12T06:34:21.263Z,1018.61
2019-05-12T06:35:20.222Z,1018.55
2019-05-12T06:36:22.160Z,1018.59
2019-05-12T06:37:20.218Z,1018.62
2019-05-12T06:38:20.224Z,1018.59
2019-05-12T06:39:20.857Z,1018.59
2019-05-12T06:40:20.186Z,1018.61
2019-05-12T06:41:21.326Z,1018.66
2019-05-12T06:42:20.142Z,1018.66
2019-05-12T06:43:20.169Z,1018.70
2019-05-12T06:44:20.145Z,1018.75
2019-05-12T06:45:20.125Z,1018.67
2019-05-12T06:46:22.991Z,1018.67
2019-05-12T06:47:21.104Z,1018.67
2019-05-12T06:48:25.672Z,1018.65
2019-05-12T06:49:21.077Z,1018.70
2019-05-12T06:50:20.057Z,1018.68
2019-05-12T06:51:23.680Z,1018.73
2019-05-12T06:52:21.040Z,1018.69
2019-05-12T06:53:24.958Z,1018.72
2019-05-12T06:54:21.019Z,1018.72
2019-05-12T06:55:19.997Z,1018.79
2019-05-12T06:56:20.075Z,1018.80
2019-05-12T06:57:25.192Z,1018.87
2019-05-12T06:58:26.786Z,1018.80
2019-05-12T06:59:23.590Z,1018.82
2019-05-12T07:00:22.260Z,1018.94
2019-05-12T07:01:20.937Z,1018.83
2019-05-12T07:02:19.927Z,1018.86
2019-05-12T07:03:28.420Z,1018.91
2019-05-12T07:04:23.409Z,1018.93
2019-05-12T07:05:19.899Z,1018.94
2019-05-12T07:06:20.093Z,1019.01
2019-05-12T07:07:19.896Z,1018.97
2019-05-12T07:08:26.302Z,1019.02
2019-05-12T07:09:25.135Z,1019.10
2019-05-12T07:10:36.743Z,1019.02
2019-05-12T07:11:20.859Z,1019.03
2019-05-12T07:12:24.947Z,1019.04
2019-05-12T07:13:24.627Z,1019.07
2019-05-12T07:14:23.164Z,1019.06
2019-05-12T07:15:22.853Z,1019.11
2019-05-12T07:16:23.785Z,1019.12
2019-05-12T07:17:20.767Z,1019.12
2019-05-12T07:18:24.371Z,1019.09
2019-05-12T07:19:22.627Z,1019.19
2019-05-12T07:20:19.741Z,1019.16
2019-05-12T07:21:23.639Z,1019.20
2019-05-12T07:22:23.401Z,1019.19
2019-05-12T07:23:25.991Z,1019.15
2019-05-12T07:24:20.710Z,1019.22
2019-05-12T07:25:24.539Z,1019.16
2019-05-12T07:26:20.665Z,1019.28
2019-05-12T07:27:32.237Z,1019.30
2019-05-12T07:28:20.640Z,1019.33
2019-05-12T07:29:19.654Z,1019.32
2019-05-12T07:30:19.646Z,1019.37
2019-05-12T07:31:19.629Z,1019.40
2019-05-12T07:32:21.782Z,1019.41
2019-05-12T07:33:19.618Z,1019.49
2019-05-12T07:34:19.614Z,1019.47
2019-05-12T07:35:19.585Z,1019.41
2019-05-12T07:36:19.557Z,1019.51
2019-05-12T07:37:19.554Z,1019.49
2019-05-12T07:38:21.559Z,1019.54
2019-05-12T07:39:19.538Z,1019.51
2019-05-12T07:40:25.652Z,1019.58
2019-05-12T07:41:20.510Z,1019.64
2019-05-12T07:42:22.683Z,1019.61
2019-05-12T07:43:20.868Z,1019.66
2019-05-12T07:44:22.191Z,1019.68
2019-05-12T07:45:22.389Z,1019.66
2019-05-12T07:46:19.451Z,1019.56
2019-05-12T07:47:24.631Z,1019.48
2019-05-12T07:48:20.424Z,1019.61
2019-05-12T07:49:22.016Z,1019.61
2019-05-12T07:50:24.270Z,1019.62
2019-05-12T07:51:20.406Z,1019.59
2019-05-12T07:52:19.400Z,1019.56
2019-05-12T07:53:19.388Z,1019.61
2019-05-12T07:54:19.384Z,1019.68
2019-05-12T07:55:19.387Z,1019.64
2019-05-12T07:56:24.359Z,1019.68
2019-05-12T07:57:20.332Z,1019.62
2019-05-12T07:58:19.670Z,1019.72
2019-05-12T07:59:19.316Z,1019.77
2019-05-12T08:00:25.174Z,1019.69
2019-05-12T08:01:20.304Z,1019.80
2019-05-12T08:02:23.178Z,1019.82
2019-05-12T08:03:21.426Z,1019.80
2019-05-12T08:04:19.278Z,1019.84
2019-05-12T08:05:21.241Z,1019.89
2019-05-12T08:06:19.243Z,1019.92
2019-05-12T08:07:19.766Z,1019.92
2019-05-12T08:08:20.243Z,1019.88
2019-05-12T08:09:24.108Z,1019.94
2019-05-12T08:10:20.389Z,1019.96
2019-05-12T08:11:19.194Z,1019.96
2019-05-12T08:12:20.946Z,1019.92
2019-05-12T08:13:19.186Z,1019.95
2019-05-12T08:14:25.887Z,1019.92
2019-05-12T08:15:20.204Z,1019.89
2019-05-12T08:16:19.530Z,1019.88
2019-05-12T08:17:20.134Z,1019.91
2019-05-12T08:18:19.122Z,1020.00
2019-05-12T08:19:23.913Z,1019.98
2019-05-12T08:20:20.114Z,1019.97
2019-05-12T08:21:19.105Z,1019.92
2019-05-12T08:22:24.324Z,1019.90
2019-05-12T08:23:20.076Z,1019.96
2019-05-12T08:24:19.075Z,1019.90
2019-05-12T08:25:27.098Z,1019.98
2019-05-12T08:26:20.038Z,1019.96
2019-05-12T08:27:19.039Z,1019.94
2019-05-12T08:28:24.421Z,1019.97
2019-05-12T08:29:21.443Z,1019.99
2019-05-12T08:30:19.022Z,1020.00
2019-05-12T08:31:23.547Z,1019.89
2019-05-12T08:32:20.414Z,1019.96
2019-05-12T08:33:18.979Z,1020.01
2019-05-12T08:34:18.984Z,1020.01
2019-05-12T08:35:25.559Z,1020.00
2019-05-12T08:36:23.443Z,1019.98
2019-05-12T08:37:18.932Z,1019.98
2019-05-12T08:38:18.923Z,1020.02
2019-05-12T08:39:22.856Z,1019.96
2019-05-12T08:40:19.909Z,1019.96
2019-05-12T08:41:18.941Z,1020.04
2019-05-12T08:42:18.918Z,1020.01
2019-05-12T08:43:18.878Z,1020.07
2019-05-12T08:44:24.596Z,1020.00
2019-05-12T08:45:25.737Z,1020.00
2019-05-12T08:46:19.870Z,1020.06
2019-05-12T08:47:18.847Z,1020.08
2019-05-12T08:48:21.638Z,1020.12
2019-05-12T08:49:19.818Z,1020.15
2019-05-12T08:50:25.591Z,1020.15
2019-05-12T08:51:20.222Z,1020.17
2019-05-12T08:52:18.786Z,1020.21
2019-05-12T08:53:20.884Z,1020.21
2019-05-12T08:54:18.780Z,1020.21
2019-05-12T08:55:25.163Z,1020.28
2019-05-12T08:56:22.958Z,1020.34
2019-05-12T08:57:19.734Z,1020.34
2019-05-12T08:58:30.106Z,1020.39
2019-05-12T08:59:24.908Z,1020.28
2019-05-12T09:00:19.710Z,1020.36
2019-05-12T09:01:20.269Z,1020.41
2019-05-12T09:02:19.696Z,1020.37
2019-05-12T09:03:20.322Z,1020.40
2019-05-12T09:04:19.669Z,1020.31
2019-05-12T09:05:18.666Z,1020.41
2019-05-12T09:06:19.803Z,1020.43
2019-05-12T09:07:18.690Z,1020.47
2019-05-12T09:08:18.633Z,1020.45
2019-05-12T09:09:18.620Z,1020.45
2019-05-12T09:10:18.601Z,1020.43
2019-05-12T09:11:18.618Z,1020.35
2019-05-12T09:12:18.592Z,1020.34
2019-05-12T09:13:18.585Z,1020.38
2019-05-12T09:14:18.587Z,1020.33
2019-05-12T09:15:18.559Z,1020.37
2019-05-12T09:16:18.567Z,1020.44
2019-05-12T09:17:18.553Z,1020.44
2019-05-12T09:18:19.073Z,1020.48
2019-05-12T09:19:23.867Z,1020.34
2019-05-12T09:20:19.540Z,1020.41
2019-05-12T09:21:23.740Z,1020.39
2019-05-12T09:22:20.902Z,1020.37
2019-05-12T09:23:18.492Z,1020.38
2019-05-12T09:24:21.754Z,1020.36
2019-05-12T09:25:19.467Z,1020.42
2019-05-12T09:26:23.680Z,1020.44
2019-05-12T09:27:19.453Z,1020.41
2019-05-12T09:28:18.450Z,1020.43
2019-05-12T09:29:18.420Z,1020.45
2019-05-12T09:30:18.408Z,1020.49
2019-05-12T09:31:19.462Z,1020.48
2019-05-12T09:32:19.422Z,1020.43
2019-05-12T09:33:21.275Z,1020.47
2019-05-12T09:34:19.376Z,1020.42
2019-05-12T09:35:18.365Z,1020.45
2019-05-12T09:36:21.472Z,1020.46
2019-05-12T09:37:18.367Z,1020.48
2019-05-12T09:38:23.124Z,1020.45
2019-05-12T09:39:19.331Z,1020.45
2019-05-12T09:40:20.633Z,1020.47
2019-05-12T09:41:18.317Z,1020.52
2019-05-12T09:42:19.210Z,1020.54
2019-05-12T09:43:19.281Z,1020.48
2019-05-12T09:44:20.288Z,1020.43
2019-05-12T09:45:19.290Z,1020.38
2019-05-12T09:46:18.270Z,1020.39
2019-05-12T09:47:23.002Z,1020.37
2019-05-12T09:48:19.238Z,1020.40
2019-05-12T09:49:24.874Z,1020.39
2019-05-12T09:50:20.445Z,1020.32
2019-05-12T09:51:18.216Z,1020.36
2019-05-12T09:52:22.083Z,1020.45
2019-05-12T09:53:19.186Z,1020.46
2019-05-12T09:54:18.173Z,1020.49
2019-05-12T09:55:18.170Z,1020.50
2019-05-12T09:56:18.165Z,1020.44
2019-05-12T09:57:18.170Z,1020.46
2019-05-12T09:58:23.251Z,1020.47
2019-05-12T09:59:22.990Z,1020.47
2019-05-12T10:00:19.125Z,1020.47
2019-05-12T10:01:18.112Z,1020.46
2019-05-12T10:02:20.704Z,1020.45
2019-05-12T10:03:18.096Z,1020.47
2019-05-12T10:04:19.742Z,1020.55
2019-05-12T10:05:18.071Z,1020.59
2019-05-12T10:06:21.255Z,1020.56
2019-05-12T10:07:18.066Z,1020.57
2019-05-12T10:08:18.050Z,1020.61
2019-05-12T10:09:19.838Z,1020.56
2019-05-12T10:10:18.032Z,1020.60
2019-05-12T10:11:20.773Z,1020.60
2019-05-12T10:12:18.036Z,1020.53
2019-05-12T10:13:20.264Z,1020.58
2019-05-12T10:14:18.996Z,1020.57
2019-05-12T10:15:26.713Z,1020.58
2019-05-12T10:16:18.962Z,1020.57
2019-05-12T10:17:20.425Z,1020.58
2019-05-12T10:18:18.958Z,1020.55
2019-05-12T10:19:17.939Z,1020.55
2019-05-12T10:20:17.936Z,1020.55
2019-05-12T10:21:17.932Z,1020.49
2019-05-12T10:22:17.934Z,1020.48
2019-05-12T10:23:20.477Z,1020.55
2019-05-12T10:24:17.920Z,1020.56
2019-05-12T10:25:17.877Z,1020.60
2019-05-12T10:26:17.902Z,1020.63
2019-05-12T10:27:21.005Z,1020.63
2019-05-12T10:28:18.855Z,1020.66
2019-05-12T10:29:20.589Z,1020.60
2019-05-12T10:30:17.913Z,1020.59
2019-05-12T10:31:18.839Z,1020.57
2019-05-12T10:32:17.848Z,1020.64
2019-05-12T10:33:17.845Z,1020.68
2019-05-12T10:34:17.807Z,1020.66
2019-05-12T10:35:24.034Z,1020.65
2019-05-12T10:36:18.787Z,1020.72
2019-05-12T10:37:19.272Z,1020.70
2019-05-12T10:38:18.774Z,1020.75
2019-05-12T10:39:17.768Z,1020.82
2019-05-12T10:40:17.764Z,1020.83
2019-05-12T10:41:17.755Z,1020.83
2019-05-12T10:42:17.742Z,1020.83
2019-05-12T10:43:17.745Z,1020.79
2019-05-12T10:44:17.733Z,1020.77
2019-05-12T10:45:20.514Z,1020.81
2019-05-12T10:46:18.532Z,1020.85
2019-05-12T10:47:18.690Z,1020.81
2019-05-12T10:48:17.683Z,1020.80
2019-05-12T10:49:17.671Z,1020.79
2019-05-12T10:50:17.666Z,1020.86
2019-05-12T10:51:17.648Z,1020.86
2019-05-12T10:52:17.638Z,1020.81
2019-05-12T10:53:17.936Z,1020.85
2019-05-12T10:54:17.631Z,1020.90
2019-05-12T10:55:17.623Z,1020.82
2019-05-12T10:56:17.608Z,1020.79
2019-05-12T10:57:17.595Z,1020.84
2019-05-12T10:58:17.594Z,1020.83
2019-05-12T10:59:30.305Z,1020.82
2019-05-12T11:00:24.745Z,1020.76
2019-05-12T11:01:18.562Z,1020.84
2019-05-12T11:02:20.314Z,1020.86
2019-05-12T11:03:18.563Z,1020.85
2019-05-12T11:04:25.043Z,1020.81
2019-05-12T11:05:21.567Z,1020.87
2019-05-12T11:06:18.503Z,1020.87
2019-05-12T11:07:17.504Z,1020.88
2019-05-12T11:08:17.505Z,1020.97
2019-05-12T11:09:21.376Z,1020.94
2019-05-12T11:10:20.008Z,1021.00
2019-05-12T11:11:17.464Z,1021.04
2019-05-12T11:12:19.206Z,1021.00
2019-05-12T11:13:18.466Z,1020.91
2019-05-12T11:14:20.211Z,1020.90
2019-05-12T11:15:18.442Z,1020.87
2019-05-12T11:16:22.917Z,1020.95
2019-05-12T11:17:18.408Z,1021.03
2019-05-12T11:18:20.558Z,1020.92
2019-05-12T11:19:18.382Z,1021.00
2019-05-12T11:20:17.374Z,1020.92
2019-05-12T11:21:17.377Z,1020.99
2019-05-12T11:22:17.367Z,1021.09
2019-05-12T11:23:17.374Z,1021.12
2019-05-12T11:24:17.342Z,1021.18
2019-05-12T11:25:17.336Z,1021.13
2019-05-12T11:26:17.332Z,1021.04
2019-05-12T11:27:17.339Z,1021.05
2019-05-12T11:28:17.417Z,1021.10
2019-05-12T11:29:17.296Z,1021.09
2019-05-12T11:30:17.288Z,1021.22
2019-05-12T11:31:17.263Z,1021.11
2019-05-12T11:32:17.775Z,1021.15
2019-05-12T11:33:17.296Z,1021.13
2019-05-12T11:34:17.255Z,1021.12
2019-05-12T11:35:17.249Z,1021.14
2019-05-12T11:36:17.244Z,1021.07
2019-05-12T11:37:17.224Z,1021.09
2019-05-12T11:38:17.233Z,1021.07
2019-05-12T11:39:17.216Z,1021.01
2019-05-12T11:40:17.219Z,1021.03
2019-05-12T11:41:20.268Z,1021.02
2019-05-12T11:42:17.181Z,1021.13
2019-05-12T11:43:17.164Z,1021.11
2019-05-12T11:44:17.177Z,1021.23
2019-05-12T11:45:17.160Z,1021.20
2019-05-12T11:46:17.146Z,1021.19
2019-05-12T11:47:24.369Z,1021.21
2019-05-12T11:48:18.128Z,1021.20
2019-05-12T11:49:21.770Z,1021.20
2019-05-12T11:50:18.096Z,1021.24
2019-05-12T11:51:20.885Z,1021.24
2019-05-12T11:52:19.393Z,1021.25
2019-05-12T11:53:17.085Z,1021.14
2019-05-12T11:54:17.094Z,1021.23
2019-05-12T11:55:21.274Z,1021.29
2019-05-12T11:56:18.047Z,1021.34
2019-05-12T11:57:20.023Z,1021.41
2019-05-12T11:58:18.033Z,1021.39
2019-05-12T11:59:17.036Z,1021.34
2019-05-12T12:00:17.019Z,1021.35
2019-05-12T12:01:16.989Z,1021.37
2019-05-12T12:02:20.153Z,1021.32
2019-05-12T12:03:18.472Z,1021.32
2019-05-12T12:04:16.991Z,1021.30
2019-05-12T12:05:16.979Z,1021.24